createdAt,value
2018-04-22T00:01:05.617Z,30.53
2018-04-22T00:03:33.099Z,33.73
2018-04-22T00:06:00.567Z,33.63
2018-04-22T00:08:28.046Z,30.87
2018-04-22T00:10:56.372Z,31.27
2018-04-22T00:13:23.888Z,30.20
2018-04-22T00:15:52.156Z,31.07
2018-04-22T00:18:20.437Z,31.80
2018-04-22T00:20:48.669Z,32.97
2018-04-22T00:23:16.178Z,29.90
2018-04-22T00:25:44.455Z,31.00
2018-04-22T00:28:12.701Z,31.90
2018-04-22T00:30:40.207Z,29.47
2018-04-22T00:33:07.724Z,28.33
2018-04-22T00:35:35.958Z,29.10
2018-04-22T00:38:04.247Z,32.27
2018-04-22T00:40:31.752Z,32.60
2018-04-22T00:43:00.036Z,30.00
2018-04-22T00:45:27.540Z,31.37
2018-04-22T00:47:55.064Z,32.50
2018-04-22T00:50:22.564Z,35.27
2018-04-22T00:52:50.042Z,35.43
2018-04-22T00:55:18.316Z,33.87
2018-04-22T00:57:45.833Z,33.03
2018-04-22T01:00:13.319Z,34.00
2018-04-22T01:02:40.829Z,34.73
2018-04-22T01:05:08.344Z,36.17
2018-04-22T01:07:35.841Z,36.40
2018-04-22T01:10:03.365Z,37.97
2018-04-22T01:12:31.598Z,30.93
2018-04-22T01:14:59.082Z,29.23
2018-04-22T01:17:26.592Z,28.93
2018-04-22T01:19:54.066Z,29.03
2018-04-22T01:22:21.575Z,30.13
2018-04-22T01:24:49.855Z,30.93
2018-04-22T01:27:18.129Z,31.90
2018-04-22T01:29:46.375Z,30.50
2018-04-22T01:32:13.888Z,32.27
2018-04-22T01:34:41.363Z,32.93
2018-04-22T01:37:08.869Z,35.10
2018-04-22T01:39:36.349Z,35.07
2018-04-22T01:42:03.821Z,32.60
2018-04-22T01:44:31.348Z,29.97
2018-04-22T01:46:59.582Z,30.43
2018-04-22T01:49:27.057Z,30.13
2018-04-22T01:51:54.573Z,28.43
2018-04-22T01:54:22.046Z,29.10
2018-04-22T01:56:49.515Z,30.40
2018-04-22T01:59:16.996Z,28.90
2018-04-22T02:01:44.466Z,29.77
2018-04-22T02:04:12.755Z,31.90
2018-04-22T02:06:40.982Z,32.73
2018-04-22T02:09:09.080Z,33.00
2018-04-22T02:11:36.553Z,33.20
2018-04-22T02:14:04.837Z,31.03
2018-04-22T02:16:32.299Z,31.33
2018-04-22T02:18:59.782Z,31.27
2018-04-22T02:21:27.287Z,32.47
2018-04-22T02:23:55.531Z,34.80
2018-04-22T02:26:23.815Z,33.53
2018-04-22T02:28:51.294Z,36.07
2018-04-22T02:31:19.564Z,34.00
2018-04-22T02:33:47.084Z,31.33
2018-04-22T02:36:14.585Z,33.30
2018-04-22T02:38:42.826Z,30.73
2018-04-22T02:41:10.307Z,31.50
2018-04-22T02:43:37.832Z,33.20
2018-04-22T02:46:06.091Z,32.30
2018-04-22T02:48:33.596Z,32.60
2018-04-22T02:51:01.079Z,34.20
2018-04-22T02:53:29.348Z,34.00
2018-04-22T02:55:57.651Z,33.90
2018-04-22T02:58:25.126Z,36.97
2018-04-22T03:00:52.613Z,30.70
2018-04-22T03:03:20.087Z,33.00
2018-04-22T03:05:48.335Z,32.17
2018-04-22T03:08:15.844Z,29.53
2018-04-22T03:10:43.338Z,31.67
2018-04-22T03:13:10.841Z,31.63
2018-04-22T03:15:39.077Z,33.60
2018-04-22T03:18:06.589Z,32.47
2018-04-22T03:20:34.067Z,31.90
2018-04-22T03:23:01.537Z,30.80
2018-04-22T03:25:29.820Z,30.17
2018-04-22T03:27:58.050Z,33.03
2018-04-22T03:30:25.536Z,32.10
2018-04-22T03:32:53.044Z,33.27
2018-04-22T03:37:55.294Z,30.70
2018-04-22T03:40:22.778Z,30.77
2018-04-22T03:42:50.251Z,30.07
2018-04-22T03:45:18.501Z,30.93
2018-04-22T03:47:45.970Z,29.57
2018-04-22T03:50:13.492Z,31.43
2018-04-22T03:52:40.995Z,37.10
2018-04-22T03:55:09.275Z,30.30
2018-04-22T03:57:37.540Z,31.23
2018-04-22T04:00:05.841Z,32.17
2018-04-22T04:02:34.070Z,36.13
2018-04-22T04:05:01.587Z,34.03
2018-04-22T04:07:29.093Z,35.20
2018-04-22T04:09:56.608Z,33.83
2018-04-22T04:12:24.108Z,33.83
2018-04-22T04:14:51.622Z,33.67
2018-04-22T04:17:19.094Z,34.17
2018-04-22T04:19:58.524Z,31.83
2018-04-22T04:22:37.979Z,31.83
2018-04-22T04:25:29.178Z,31.90
2018-04-22T04:27:56.644Z,32.20
2018-04-22T04:30:24.966Z,31.33
2018-04-22T04:32:53.206Z,33.07
2018-04-22T04:35:20.723Z,32.63
2018-04-22T04:37:48.188Z,34.63
2018-04-22T04:40:15.671Z,36.83
2018-04-22T04:42:43.172Z,34.93
2018-04-22T04:45:11.423Z,34.80
2018-04-22T04:47:38.890Z,36.73
2018-04-22T04:50:06.396Z,36.03
2018-04-22T04:52:33.910Z,40.50
2018-04-22T04:55:01.378Z,30.17
2018-04-22T04:57:29.655Z,34.70
2018-04-22T04:59:57.924Z,30.53
2018-04-22T05:02:26.202Z,33.57
2018-04-22T05:04:54.431Z,33.73
2018-04-22T05:07:21.913Z,31.33
2018-04-22T05:09:49.416Z,31.77
2018-04-22T05:12:16.932Z,30.10
2018-04-22T05:14:44.432Z,31.37
2018-04-22T05:17:11.947Z,28.23
2018-04-22T05:19:39.447Z,29.33
2018-04-22T05:22:06.968Z,27.60
2018-04-22T05:24:34.472Z,25.10
2018-04-22T05:27:02.005Z,24.90
2018-04-22T05:29:29.496Z,22.73
2018-04-22T05:31:56.986Z,24.20
2018-04-22T05:34:24.453Z,22.90
2018-04-22T05:36:51.984Z,22.97
2018-04-22T05:39:19.471Z,21.27
2018-04-22T05:41:47.060Z,22.07
2018-04-22T05:44:15.287Z,22.07
2018-04-22T05:46:42.787Z,22.57
2018-04-22T05:49:11.060Z,21.40
2018-04-22T05:51:39.302Z,21.57
2018-04-22T05:54:06.791Z,23.27
2018-04-22T05:56:35.088Z,23.33
2018-04-22T05:59:02.583Z,34.67
2018-04-22T06:01:31.088Z,35.60
2018-04-22T06:03:58.639Z,22.47
2018-04-22T06:06:26.150Z,20.70
2018-04-22T06:08:53.627Z,19.60
2018-04-22T06:11:21.185Z,19.77
2018-04-22T06:13:48.716Z,21.03
2018-04-22T06:16:16.259Z,20.08
2018-04-22T06:18:44.502Z,20.70
2018-04-22T06:21:12.016Z,19.87
2018-04-22T06:23:39.517Z,20.60
2018-04-22T06:26:07.065Z,20.27
2018-04-22T06:28:34.558Z,20.25
2018-04-22T06:31:02.868Z,22.67
2018-04-22T06:33:30.409Z,20.90
2018-04-22T06:35:57.971Z,20.02
2018-04-22T06:38:25.452Z,20.77
2018-04-22T06:40:52.966Z,21.08
2018-04-22T06:43:21.320Z,20.62
2018-04-22T06:45:48.827Z,20.23
2018-04-22T06:48:16.339Z,19.65
2018-04-22T06:50:44.596Z,19.52
2018-04-22T06:53:12.095Z,20.05
2018-04-22T06:55:40.387Z,19.83
2018-04-22T06:58:07.879Z,19.50
2018-04-22T07:00:35.345Z,20.65
2018-04-22T07:03:03.670Z,20.58
2018-04-22T07:05:31.202Z,19.80
2018-04-22T07:07:58.690Z,19.17
2018-04-22T07:10:26.158Z,20.52
2018-04-22T07:12:53.724Z,20.27
2018-04-22T07:15:21.200Z,21.00
2018-04-22T07:17:48.777Z,20.45
2018-04-22T07:20:16.293Z,20.67
2018-04-22T07:22:43.818Z,20.30
2018-04-22T07:25:12.049Z,20.50
2018-04-22T07:27:39.533Z,20.52
2018-04-22T07:30:07.036Z,21.17
2018-04-22T07:32:34.559Z,20.08
2018-04-22T07:35:02.063Z,19.37
2018-04-22T07:37:29.557Z,19.73
2018-04-22T07:39:57.063Z,18.62
2018-04-22T07:42:24.621Z,19.52
2018-04-22T07:44:52.871Z,20.62
2018-04-22T07:47:21.122Z,19.25
2018-04-22T07:49:48.594Z,19.58
2018-04-22T07:52:16.119Z,18.45
2018-04-22T07:54:43.632Z,18.92
2018-04-22T07:57:11.881Z,19.42
2018-04-22T07:59:39.358Z,19.05
2018-04-22T08:02:07.645Z,19.17
2018-04-22T08:04:35.979Z,17.98
2018-04-22T08:07:03.495Z,17.85
2018-04-22T08:09:31.009Z,18.12
2018-04-22T08:11:58.523Z,17.20
2018-04-22T08:14:25.990Z,17.55
2018-04-22T08:16:53.512Z,18.02
2018-04-22T08:19:20.978Z,16.67
2018-04-22T08:21:48.459Z,18.55
2018-04-22T08:24:15.976Z,16.52
2018-04-22T08:26:44.206Z,18.37
2018-04-22T08:29:11.742Z,18.42
2018-04-22T08:31:39.255Z,17.60
2018-04-22T08:34:06.772Z,21.02
2018-04-22T08:36:34.233Z,18.52
2018-04-22T08:39:01.730Z,17.48
2018-04-22T08:41:30.007Z,16.92
2018-04-22T08:43:58.353Z,15.88
2018-04-22T08:46:25.849Z,15.00
2018-04-22T08:48:54.098Z,15.75
2018-04-22T08:51:21.607Z,15.10
2018-04-22T08:53:49.102Z,15.68
2018-04-22T08:56:16.595Z,12.25
2018-04-22T08:58:44.838Z,14.27
2018-04-22T09:01:12.324Z,14.35
2018-04-22T09:03:40.579Z,14.05
2018-04-22T09:06:08.053Z,13.73
2018-04-22T09:08:36.356Z,13.20
2018-04-22T09:11:03.868Z,13.48
2018-04-22T09:13:31.400Z,13.00
2018-04-22T09:15:58.899Z,12.80
2018-04-22T09:18:27.188Z,13.73
2018-04-22T09:20:55.423Z,12.20
2018-04-22T09:23:22.908Z,13.32
2018-04-22T09:25:51.189Z,11.95
2018-04-22T09:28:19.471Z,12.73
2018-04-22T09:30:47.740Z,13.10
2018-04-22T09:33:15.989Z,13.45
2018-04-22T09:35:43.471Z,13.80
2018-04-22T09:38:11.760Z,12.27
2018-04-22T09:40:39.271Z,11.52
2018-04-22T09:43:06.803Z,10.93
2018-04-22T09:45:34.294Z,11.75
2018-04-22T09:48:01.773Z,9.60
2018-04-22T09:50:30.019Z,10.50
2018-04-22T09:52:57.539Z,11.45
2018-04-22T09:55:25.010Z,10.98
2018-04-22T09:57:52.537Z,9.75
2018-04-22T10:00:26.495Z,10.10
2018-04-22T10:02:54.780Z,8.95
2018-04-22T10:05:22.287Z,9.70
2018-04-22T10:07:49.812Z,9.82
2018-04-22T10:10:17.307Z,9.35
2018-04-22T10:12:44.828Z,9.80
2018-04-22T10:15:13.108Z,8.65
2018-04-22T10:17:40.623Z,9.38
2018-04-22T10:20:08.124Z,9.63
2018-04-22T10:22:35.683Z,9.20
2018-04-22T10:25:03.199Z,9.80
2018-04-22T10:27:30.666Z,8.98
2018-04-22T10:29:58.154Z,8.88
2018-04-22T10:32:26.395Z,9.15
2018-04-22T10:34:53.913Z,9.27
2018-04-22T10:37:21.394Z,8.00
2018-04-22T10:39:48.905Z,8.52
2018-04-22T10:42:16.382Z,7.45
2018-04-22T10:44:43.870Z,8.13
2018-04-22T10:47:11.330Z,8.40
2018-04-22T10:49:38.810Z,7.05
2018-04-22T10:52:06.282Z,6.20
2018-04-22T10:54:33.771Z,6.25
2018-04-22T10:57:01.239Z,5.72
2018-04-22T10:59:28.723Z,6.70
2018-04-22T11:01:56.236Z,6.82
2018-04-22T11:04:24.482Z,6.93
2018-04-22T11:06:51.951Z,6.30
2018-04-22T11:09:20.232Z,6.20
2018-04-22T11:11:48.570Z,6.00
2018-04-22T11:14:16.827Z,5.90
2018-04-22T11:16:44.279Z,5.45
2018-04-22T11:19:11.762Z,5.55
2018-04-22T11:21:39.273Z,5.72
2018-04-22T11:24:06.789Z,5.28
2018-04-22T11:26:34.292Z,5.85
2018-04-22T11:29:01.780Z,6.10
2018-04-22T11:31:29.284Z,5.65
2018-04-22T11:33:57.564Z,5.95
2018-04-22T11:36:25.836Z,5.30
2018-04-22T11:38:53.343Z,4.87
2018-04-22T11:41:20.827Z,4.97
2018-04-22T11:43:48.329Z,5.50
2018-04-22T11:46:15.842Z,5.60
2018-04-22T11:48:43.320Z,5.80
2018-04-22T11:51:10.848Z,5.68
2018-04-22T11:53:38.359Z,5.78
2018-04-22T11:56:05.942Z,4.50
2018-04-22T11:58:33.414Z,4.43
2018-04-22T12:01:00.937Z,4.25
2018-04-22T12:03:28.443Z,4.50
2018-04-22T12:05:55.919Z,5.70
2018-04-22T12:08:23.431Z,4.35
2018-04-22T12:10:50.906Z,4.05
2018-04-22T12:13:18.379Z,4.65
2018-04-22T12:15:45.894Z,4.40
2018-04-22T12:18:13.359Z,5.10
2018-04-22T12:20:40.829Z,4.60
2018-04-22T12:23:08.340Z,4.75
2018-04-22T12:25:36.616Z,4.70
2018-04-22T12:28:04.887Z,5.00
2018-04-22T12:30:33.168Z,5.25
2018-04-22T12:33:01.398Z,4.70
2018-04-22T12:35:28.915Z,4.22
2018-04-22T12:37:56.428Z,4.70
2018-04-22T12:40:23.924Z,5.35
2018-04-22T12:42:51.426Z,4.60
2018-04-22T12:45:18.944Z,5.32
2018-04-22T12:47:46.416Z,4.87
2018-04-22T12:50:13.947Z,5.53
2018-04-22T12:52:42.181Z,5.30
2018-04-22T12:55:09.709Z,5.10
2018-04-22T12:57:37.212Z,4.72
2018-04-22T13:00:04.733Z,4.90
2018-04-22T13:02:32.236Z,4.50
2018-04-22T13:04:59.752Z,4.93
2018-04-22T13:07:27.260Z,4.68
2018-04-22T13:09:55.510Z,4.90
2018-04-22T13:12:23.030Z,5.00
2018-04-22T13:14:50.537Z,4.93
2018-04-22T13:17:18.022Z,4.60
2018-04-22T13:19:45.546Z,4.37
2018-04-22T13:22:13.021Z,4.93
2018-04-22T13:24:41.254Z,4.40
2018-04-22T13:27:08.734Z,4.35
2018-04-22T13:29:36.200Z,4.50
2018-04-22T13:32:03.723Z,4.43
2018-04-22T13:34:31.212Z,4.50
2018-04-22T13:36:58.703Z,4.53
2018-04-22T13:39:26.307Z,4.72
2018-04-22T13:41:53.783Z,4.80
2018-04-22T13:44:21.257Z,4.60
2018-04-22T13:46:49.495Z,4.37
2018-04-22T13:49:17.008Z,5.10
2018-04-22T13:51:44.500Z,4.65
2018-04-22T13:54:11.982Z,4.78
2018-04-22T13:56:39.462Z,4.80
2018-04-22T13:59:07.694Z,5.15
2018-04-22T14:01:35.167Z,4.50
2018-04-22T14:04:02.678Z,4.62
2018-04-22T14:06:30.188Z,4.97
2018-04-22T14:08:57.654Z,4.80
2018-04-22T14:11:25.176Z,4.65
2018-04-22T14:13:52.680Z,5.03
2018-04-22T14:16:20.960Z,5.10
2018-04-22T14:18:49.224Z,4.68
2018-04-22T14:21:16.696Z,4.97
2018-04-22T14:23:44.927Z,4.62
2018-04-22T14:26:12.451Z,4.65
2018-04-22T14:28:39.951Z,5.37
2018-04-22T14:31:07.468Z,5.40
2018-04-22T14:33:34.928Z,5.47
2018-04-22T14:36:02.394Z,5.07
2018-04-22T14:38:29.874Z,4.87
2018-04-22T14:40:57.343Z,5.20
2018-04-22T14:43:24.855Z,5.40
2018-04-22T14:46:04.324Z,5.15
2018-04-22T14:48:31.836Z,4.65
2018-04-22T14:50:59.336Z,4.95
2018-04-22T14:53:26.814Z,4.37
2018-04-22T14:55:54.329Z,4.93
2018-04-22T14:58:21.853Z,4.87
2018-04-22T15:00:50.083Z,4.87
2018-04-22T15:03:17.610Z,4.70
2018-04-22T15:05:45.071Z,6.10
2018-04-22T15:08:12.554Z,4.70
2018-04-22T15:10:40.018Z,4.78
2018-04-22T15:13:07.543Z,4.87
2018-04-22T15:15:35.044Z,4.68
2018-04-22T15:18:02.514Z,5.12
2018-04-22T15:20:29.990Z,4.90
2018-04-22T15:22:58.272Z,4.40
2018-04-22T15:25:26.551Z,4.68
2018-04-22T15:27:54.799Z,4.90
2018-04-22T15:30:22.307Z,4.95
2018-04-22T15:32:49.827Z,5.00
2018-04-22T15:35:18.059Z,4.80
2018-04-22T15:37:45.570Z,4.57
2018-04-22T15:40:13.839Z,5.03
2018-04-22T15:42:42.104Z,4.50
2018-04-22T15:45:09.588Z,5.55
2018-04-22T15:47:37.071Z,4.62
2018-04-22T15:50:04.578Z,4.65
2018-04-22T15:52:32.092Z,4.43
2018-04-22T15:54:59.593Z,5.12
2018-04-22T15:57:27.080Z,5.28
2018-04-22T15:59:54.544Z,4.72
2018-04-22T16:02:22.027Z,4.55
2018-04-22T16:04:49.536Z,4.50
2018-04-22T16:07:17.769Z,4.55
2018-04-22T16:09:45.239Z,4.47
2018-04-22T16:12:12.719Z,5.10
2018-04-22T16:14:40.973Z,4.75
2018-04-22T16:17:08.442Z,4.62
2018-04-22T16:19:36.717Z,4.75
2018-04-22T16:22:04.193Z,4.30
2018-04-22T16:24:32.460Z,4.68
2018-04-22T16:27:00.747Z,4.55
2018-04-22T16:29:29.025Z,4.70
2018-04-22T16:31:56.488Z,4.80
2018-04-22T16:34:24.012Z,4.70
2018-04-22T16:36:51.520Z,4.72
2018-04-22T16:39:19.003Z,4.78
2018-04-22T16:41:46.512Z,4.37
2018-04-22T16:44:14.005Z,4.60
2018-04-22T16:46:41.507Z,5.22
2018-04-22T16:49:09.035Z,4.68
2018-04-22T16:51:36.535Z,4.07
2018-04-22T16:54:04.779Z,5.15
2018-04-22T16:56:32.288Z,7.97
2018-04-22T16:58:59.771Z,5.25
2018-04-22T17:01:27.276Z,4.28
2018-04-22T17:03:55.520Z,4.43
2018-04-22T17:06:23.023Z,4.65
2018-04-22T17:08:50.495Z,4.50
2018-04-22T17:11:17.968Z,6.78
2018-04-22T17:13:45.487Z,4.68
2018-04-22T17:16:13.728Z,4.57
2018-04-22T17:18:41.216Z,5.20
2018-04-22T17:21:09.488Z,12.50
2018-04-22T17:23:37.789Z,11.73
2018-04-22T17:26:05.297Z,4.95
2018-04-22T17:28:32.812Z,4.80
2018-04-22T17:31:00.316Z,5.18
2018-04-22T17:33:27.844Z,4.97
2018-04-22T17:35:55.308Z,4.47
2018-04-22T17:38:22.799Z,5.97
2018-04-22T17:40:51.071Z,5.12
2018-04-22T17:43:18.584Z,4.73
2018-04-22T17:45:46.095Z,5.87
2018-04-22T17:48:14.397Z,13.68
2018-04-22T17:50:41.871Z,30.77
2018-04-22T17:53:09.376Z,7.33
2018-04-22T17:55:36.892Z,4.53
2018-04-22T17:58:04.362Z,4.90
2018-04-22T18:00:31.844Z,5.23
2018-04-22T18:02:59.353Z,4.53
2018-04-22T18:05:26.872Z,4.90
2018-04-22T18:07:54.345Z,5.20
2018-04-22T18:10:22.583Z,5.00
2018-04-22T18:12:50.097Z,5.70
2018-04-22T18:15:17.574Z,5.53
2018-04-22T18:17:45.076Z,5.90
2018-04-22T18:20:12.586Z,4.97
2018-04-22T18:22:40.080Z,5.07
2018-04-22T18:25:07.592Z,5.43
2018-04-22T18:27:35.059Z,5.57
2018-04-22T18:30:02.576Z,5.50
2018-04-22T18:32:30.811Z,5.17
2018-04-22T18:34:58.354Z,6.03
2018-04-22T18:37:25.861Z,7.47
2018-04-22T18:39:54.143Z,5.60
2018-04-22T18:42:22.408Z,6.00
2018-04-22T18:44:50.692Z,5.90
2018-04-22T18:47:18.926Z,6.63
2018-04-22T18:49:46.411Z,8.40
2018-04-22T18:52:13.916Z,6.43
2018-04-22T18:54:41.396Z,6.80
2018-04-22T18:57:08.899Z,5.97
2018-04-22T18:59:37.187Z,7.67
2018-04-22T19:02:04.688Z,7.03
2018-04-22T19:04:32.231Z,7.00
2018-04-22T19:06:59.748Z,7.57
2018-04-22T19:09:27.306Z,7.50
2018-04-22T19:11:55.545Z,7.70
2018-04-22T19:14:23.020Z,7.33
2018-04-22T19:16:50.490Z,8.30
2018-04-22T19:19:18.883Z,8.10
2018-04-22T19:21:47.039Z,6.77
2018-04-22T19:24:15.332Z,8.03
2018-04-22T19:26:43.563Z,8.30
2018-04-22T19:29:11.594Z,8.20
2018-04-22T19:31:39.058Z,8.40
2018-04-22T19:34:06.589Z,7.87
2018-04-22T19:36:34.064Z,8.20
2018-04-22T19:39:01.532Z,12.47
2018-04-22T19:41:29.024Z,18.00
2018-04-22T19:43:56.495Z,8.97
2018-04-22T19:46:24.004Z,8.60
2018-04-22T19:48:51.569Z,9.20
2018-04-22T19:51:19.109Z,10.17
2018-04-22T19:53:46.591Z,9.17
2018-04-22T19:56:14.057Z,9.00
2018-04-22T19:58:41.538Z,8.47
2018-04-22T20:01:09.023Z,8.77
2018-04-22T20:03:36.515Z,7.80
2018-04-22T20:06:04.033Z,8.40
2018-04-22T20:08:32.270Z,8.27
2018-04-22T20:10:59.755Z,7.33
2018-04-22T20:13:27.991Z,8.40
2018-04-22T20:15:55.474Z,8.20
2018-04-22T20:18:22.938Z,8.40
2018-04-22T20:20:51.238Z,9.60
2018-04-22T20:23:19.508Z,8.37
2018-04-22T20:25:47.811Z,8.67
2018-04-22T20:28:15.336Z,8.30
2018-04-22T20:30:43.566Z,9.10
2018-04-22T20:33:11.057Z,8.97
2018-04-22T20:35:39.364Z,8.93
2018-04-22T20:38:06.949Z,9.33
2018-04-22T20:40:34.422Z,9.57
2018-04-22T20:43:01.896Z,8.90
2018-04-22T20:45:29.404Z,8.63
2018-04-22T20:47:56.919Z,9.20
2018-04-22T20:50:24.496Z,17.27
2018-04-22T20:52:52.768Z,10.30
2018-04-22T20:55:21.052Z,8.97
2018-04-22T20:57:49.331Z,9.17
2018-04-22T21:00:16.855Z,8.73
2018-04-22T21:02:44.329Z,10.30
2018-04-22T21:05:12.616Z,9.00
2018-04-22T21:07:40.891Z,10.33
2018-04-22T21:10:09.183Z,8.90
2018-04-22T21:12:36.665Z,9.67
2018-04-22T21:15:04.940Z,9.27
2018-04-22T21:17:32.419Z,9.70
2018-04-22T21:19:59.928Z,9.43
2018-04-22T21:22:27.447Z,9.73
2018-04-22T21:24:54.948Z,9.63
2018-04-22T21:27:22.460Z,8.90
2018-04-22T21:29:49.925Z,8.43
2018-04-22T21:32:17.443Z,8.73
2018-04-22T21:34:44.963Z,8.83
2018-04-22T21:37:13.248Z,9.57
2018-04-22T21:39:40.716Z,9.37
2018-04-22T21:42:08.194Z,9.87
2018-04-22T21:44:35.707Z,10.37
2018-04-22T21:47:03.992Z,10.37
2018-04-22T21:49:31.496Z,9.93
2018-04-22T21:51:59.015Z,10.37
2018-04-22T21:54:26.511Z,9.93
2018-04-22T21:56:53.995Z,10.07
2018-04-22T21:59:21.466Z,10.27
2018-04-22T22:01:49.763Z,9.77
2018-04-22T22:04:17.267Z,10.40
2018-04-22T22:06:44.785Z,12.37
2018-04-22T22:09:12.293Z,10.63
2018-04-22T22:11:39.804Z,10.60
2018-04-22T22:14:07.304Z,9.73
2018-04-22T22:16:34.825Z,10.63
2018-04-22T22:19:02.290Z,9.80
2018-04-22T22:21:29.775Z,9.17
2018-04-22T22:23:57.252Z,10.80
2018-04-22T22:26:24.777Z,11.27
2018-04-22T22:28:52.336Z,11.20
2018-04-22T22:31:19.839Z,11.07
2018-04-22T22:33:48.070Z,11.20
2018-04-22T22:36:15.563Z,12.60
2018-04-22T22:38:43.844Z,11.27
2018-04-22T22:41:12.091Z,11.93
2018-04-22T22:43:39.599Z,11.27
2018-04-22T22:46:07.125Z,11.93
2018-04-22T22:48:34.635Z,11.77
2018-04-22T22:51:02.099Z,12.23
2018-04-22T22:53:29.625Z,11.50
2018-04-22T22:55:57.133Z,11.30
2018-04-22T22:58:24.643Z,10.90
2018-04-22T23:00:52.149Z,11.13
2018-04-22T23:03:19.663Z,10.33
2018-04-22T23:05:47.138Z,10.53
2018-04-22T23:08:14.655Z,9.93
2018-04-22T23:10:42.883Z,9.77
2018-04-22T23:13:10.363Z,9.27
2018-04-22T23:15:37.875Z,9.83
2018-04-22T23:18:05.357Z,9.00
2018-04-22T23:20:32.860Z,9.00
2018-04-22T23:23:01.098Z,8.53
2018-04-22T23:25:28.607Z,7.50
2018-04-22T23:27:56.131Z,8.60
2018-04-22T23:30:23.632Z,8.80
2018-04-22T23:32:51.122Z,9.30
2018-04-22T23:35:18.623Z,9.20
2018-04-22T23:37:46.917Z,8.30
2018-04-22T23:40:14.379Z,7.97
2018-04-22T23:42:41.862Z,9.00
2018-04-22T23:45:09.331Z,7.50
2018-04-22T23:47:36.853Z,7.50
2018-04-22T23:50:04.355Z,7.70
2018-04-22T23:52:31.830Z,7.77
2018-04-22T23:55:00.115Z,7.60
2018-04-22T23:57:28.368Z,8.43
2018-04-22T23:59:55.863Z,7.60
